Time;durP1;ratioP1;P1;durP2;ratioP2;P2;SDS_P1;SDS_P2;PMS_P1;PMS_P2;Temp;Humidity;BMP_temperature;BMP_pressure;BME280_temperature;BME280_humidity;BME280_pressure;Samples;Min_cycle;Max_cycle;Signal;HPM_P1;HPM_P2
2023/08/19 00:02:00;;;;;;;14.73;13.43;;;;;;;;;;10386805;27;20048;-73
2023/08/19 00:06:56;;;;;;;15.20;13.90;;;;;;;;;;10392035;27;20104;-74
2023/08/19 00:11:52;;;;;;;15.43;14.02;;;;;;;;;;10393662;27;20047;-74
2023/08/19 00:16:49;;;;;;;16.35;14.75;;;;;;;;;;10385874;27;20051;-73
2023/08/19 00:21:45;;;;;;;14.43;13.32;;;;;;;;;;10378726;27;20039;-73
2023/08/19 00:26:41;;;;;;;15.02;13.85;;;;;;;;;;10384542;27;20048;-74
2023/08/19 00:32:05;;;;;;;15.95;14.70;;;;;;;;;;10349711;22;20478;-74
2023/08/19 00:38:13;;;;;;;14.90;13.70;;;;;;;;;;10283262;28;20068;-74
2023/08/19 00:43:35;;;;;;;15.90;14.52;;;;;;;;;;10239868;28;20140;-74
2023/08/19 00:49:14;;;;;;;17.88;15.85;;;;;;;;;;10256038;28;20053;-73
2023/08/19 01:06:31;;;;;;;17.10;15.75;;;;;;;;;;10112859;28;20038;-74
2023/08/19 01:12:00;;;;;;;16.52;15.15;;;;;;;;;;10244066;28;20041;-73
2023/08/19 01:16:59;;;;;;;16.42;15.13;;;;;;;;;;10257600;28;20041;-73
2023/08/19 01:22:24;;;;;;;17.42;15.82;;;;;;;;;;10252516;28;20049;-74
2023/08/19 01:27:38;;;;;;;16.88;15.43;;;;;;;;;;10232304;28;20053;-73
2023/08/19 01:32:51;;;;;;;16.98;15.60;;;;;;;;;;10206108;28;20046;-73
2023/08/19 01:43:40;;;;;;;16.98;15.57;;;;;;;;;;10211551;28;20491;-74
2023/08/19 01:49:32;;;;;;;;;;;;;;;;;;;;;
2023/08/19 01:54:49;;;;;;;17.25;15.95;;;;;;;;;;10253438;28;20045;-73
2023/08/19 02:00:31;;;;;;;17.40;15.80;;;;;;;;;;10240302;28;20458;-73
2023/08/19 02:06:14;;;;;;;18.45;16.77;;;;;;;;;;10189902;28;20088;-73
2023/08/19 02:11:50;;;;;;;18.48;16.85;;;;;;;;;;10247052;28;20133;-74
2023/08/19 02:17:24;;;;;;;18.33;16.47;;;;;;;;;;10254125;28;20038;-72
2023/08/19 02:22:49;;;;;;;16.92;15.48;;;;;;;;;;10250679;22;20051;-73
2023/08/19 02:27:45;;;;;;;18.13;16.40;;;;;;;;;;10218670;28;20076;-72
2023/08/19 02:32:41;;;;;;;18.92;17.17;;;;;;;;;;10233518;28;20615;-73
2023/08/19 02:37:38;;;;;;;18.80;17.10;;;;;;;;;;10222954;28;20105;-74
2023/08/19 02:42:34;;;;;;;18.73;17.13;;;;;;;;;;10217548;28;20046;-73
2023/08/19 02:47:30;;;;;;;17.95;16.15;;;;;;;;;;10214310;28;20057;-73
2023/08/19 02:52:27;;;;;;;19.02;17.08;;;;;;;;;;10184002;28;20112;-73
2023/08/19 02:57:23;;;;;;;18.70;17.00;;;;;;;;;;10220122;28;20057;-73
2023/08/19 03:02:19;;;;;;;18.75;17.25;;;;;;;;;;10225637;28;20479;-73
2023/08/19 03:07:16;;;;;;;17.90;16.40;;;;;;;;;;10205708;28;20048;-72
2023/08/19 03:12:12;;;;;;;20.50;17.75;;;;;;;;;;10213370;28;20042;-72
2023/08/19 03:17:08;;;;;;;18.48;16.80;;;;;;;;;;10221197;28;20415;-72
2023/08/19 03:22:05;;;;;;;18.70;17.10;;;;;;;;;;10219215;28;20061;-72
2023/08/19 03:27:01;;;;;;;18.90;17.10;;;;;;;;;;10210484;28;20054;-73
2023/08/19 03:31:57;;;;;;;19.45;17.75;;;;;;;;;;10210576;28;20112;-73
2023/08/19 03:36:54;;;;;;;18.90;17.35;;;;;;;;;;10216443;28;20045;-73
2023/08/19 03:41:50;;;;;;;19.45;17.75;;;;;;;;;;10215307;28;20053;-73
2023/08/19 03:46:46;;;;;;;19.90;17.83;;;;;;;;;;10212246;28;20112;-73
2023/08/19 03:51:42;;;;;;;19.38;17.48;;;;;;;;;;10206590;28;20057;-73
2023/08/19 03:56:39;;;;;;;19.90;18.25;;;;;;;;;;10211901;28;20057;-73
2023/08/19 04:01:35;;;;;;;20.55;18.42;;;;;;;;;;10209143;28;20578;-73
2023/08/19 04:06:32;;;;;;;21.30;19.38;;;;;;;;;;10218330;28;20097;-73
2023/08/19 04:11:28;;;;;;;20.67;18.63;;;;;;;;;;10205676;28;20081;-73
2023/08/19 04:16:25;;;;;;;20.42;18.55;;;;;;;;;;10216684;28;20078;-73
2023/08/19 04:21:22;;;;;;;21.25;18.52;;;;;;;;;;10230916;28;20079;-73
2023/08/19 04:26:18;;;;;;;23.50;18.98;;;;;;;;;;10221749;28;20072;-73
2023/08/19 04:31:14;;;;;;;21.85;19.60;;;;;;;;;;10221321;28;20054;-73
2023/08/19 04:36:12;;;;;;;20.13;18.30;;;;;;;;;;10210587;28;20512;-73
2023/08/19 04:41:08;;;;;;;20.40;18.60;;;;;;;;;;10238955;28;20400;-73
2023/08/19 04:46:05;;;;;;;20.85;18.95;;;;;;;;;;10218594;28;20065;-73
2023/08/19 04:51:01;;;;;;;19.80;18.00;;;;;;;;;;10224444;28;20054;-73
2023/08/19 04:56:04;;;;;;;20.77;18.98;;;;;;;;;;10222255;28;20073;-73
2023/08/19 05:01:00;;;;;;;21.20;18.98;;;;;;;;;;10226457;28;20053;-73
2023/08/19 05:05:57;;;;;;;19.10;17.40;;;;;;;;;;10219094;28;20054;-73
2023/08/19 05:10:53;;;;;;;19.70;18.08;;;;;;;;;;10231871;28;20115;-73
2023/08/19 05:15:49;;;;;;;19.38;17.77;;;;;;;;;;10215148;28;20045;-73
2023/08/19 05:20:46;;;;;;;18.58;16.77;;;;;;;;;;10228216;28;20072;-73
2023/08/19 05:25:43;;;;;;;19.85;18.25;;;;;;;;;;10210927;28;20597;-73
2023/08/19 05:30:39;;;;;;;19.90;18.30;;;;;;;;;;10219216;28;20050;-73
2023/08/19 05:35:36;;;;;;;19.10;17.50;;;;;;;;;;10223898;28;20045;-73
2023/08/19 05:40:32;;;;;;;18.33;16.77;;;;;;;;;;10217775;28;20073;-72
2023/08/19 05:45:28;;;;;;;18.15;16.52;;;;;;;;;;10213064;28;20713;-73
2023/08/19 05:50:26;;;;;;;19.83;18.08;;;;;;;;;;10220761;28;20511;-73
2023/08/19 05:55:22;;;;;;;19.25;17.52;;;;;;;;;;10228728;28;20728;-73
2023/08/19 06:00:19;;;;;;;19.05;17.17;;;;;;;;;;10231410;28;20474;-73
2023/08/19 06:05:15;;;;;;;19.00;17.25;;;;;;;;;;10213106;28;20085;-73
2023/08/19 06:10:12;;;;;;;18.65;17.15;;;;;;;;;;10209408;28;20053;-73
2023/08/19 06:15:08;;;;;;;19.10;17.58;;;;;;;;;;10205908;28;20550;-73
2023/08/19 06:20:34;;;;;;;18.30;16.48;;;;;;;;;;10254550;22;20594;-73
2023/08/19 06:25:48;;;;;;;18.13;16.52;;;;;;;;;;10341173;28;20047;-73
2023/08/19 06:31:08;;;;;;;18.17;16.38;;;;;;;;;;10332376;28;20551;-72
2023/08/19 06:36:38;;;;;;;18.40;16.73;;;;;;;;;;10348559;28;20065;-73
2023/08/19 06:42:17;;;;;;;16.95;15.50;;;;;;;;;;10339572;22;20371;-73
2023/08/19 06:48:00;;;;;;;18.42;16.63;;;;;;;;;;10364028;27;20044;-73
2023/08/19 06:53:09;;;;;;;19.40;17.65;;;;;;;;;;10353074;27;20070;-73
2023/08/19 06:59:08;;;;;;;;;;;;;;;;;;;;;
2023/08/19 07:04:35;;;;;;;16.60;15.00;;;;;;;;;;10377029;28;20134;-73
2023/08/19 07:09:33;;;;;;;17.02;15.52;;;;;;;;;;10387138;28;20043;-73
2023/08/19 07:14:30;;;;;;;16.65;15.15;;;;;;;;;;10392726;27;20047;-73
2023/08/19 07:19:27;;;;;;;16.15;14.65;;;;;;;;;;10396631;27;20043;-73
2023/08/19 07:24:25;;;;;;;15.68;14.18;;;;;;;;;;10393781;27;20069;-73
2023/08/19 07:29:21;;;;;;;16.50;15.07;;;;;;;;;;10393595;27;20505;-73
2023/08/19 07:34:17;;;;;;;16.20;14.60;;;;;;;;;;10389000;28;20513;-73
2023/08/19 07:39:14;;;;;;;15.95;14.48;;;;;;;;;;10398589;22;20146;-73
2023/08/19 07:44:10;;;;;;;15.05;13.70;;;;;;;;;;10271242;28;20048;-73
2023/08/19 07:49:06;;;;;;;15.48;14.07;;;;;;;;;;10287508;28;20053;-73
2023/08/19 07:54:03;;;;;;;15.73;14.25;;;;;;;;;;10261512;28;20045;-73
2023/08/19 07:58:59;;;;;;;15.57;13.95;;;;;;;;;;10262335;28;20068;-73
2023/08/19 08:03:55;;;;;;;15.45;13.93;;;;;;;;;;10265608;28;20044;-73
2023/08/19 08:08:53;;;;;;;13.90;12.65;;;;;;;;;;10270260;28;20051;-73
2023/08/19 08:13:49;;;;;;;14.85;12.43;;;;;;;;;;10263021;28;20045;-74
2023/08/19 08:18:45;;;;;;;13.80;12.60;;;;;;;;;;10268916;28;20110;-73
2023/08/19 08:23:42;;;;;;;13.10;11.90;;;;;;;;;;10257557;28;20081;-73
2023/08/19 08:28:38;;;;;;;15.23;13.93;;;;;;;;;;10265057;28;20124;-73
2023/08/19 08:33:34;;;;;;;13.90;12.60;;;;;;;;;;10275982;28;20045;-73
2023/08/19 08:38:31;;;;;;;14.40;13.10;;;;;;;;;;10268696;28;20129;-73
2023/08/19 08:43:28;;;;;;;13.02;11.93;;;;;;;;;;10271941;28;20077;-73
2023/08/19 08:48:26;;;;;;;13.25;11.95;;;;;;;;;;10276742;28;20465;-73
2023/08/19 08:53:23;;;;;;;12.82;11.57;;;;;;;;;;10266047;28;20087;-73
2023/08/19 08:58:20;;;;;;;14.35;12.48;;;;;;;;;;10260318;28;20419;-73
2023/08/19 09:03:24;;;;;;;13.65;12.45;;;;;;;;;;10272581;28;20081;-73
2023/08/19 09:08:28;;;;;;;13.82;12.52;;;;;;;;;;10266705;28;20089;-73
2023/08/19 09:13:25;;;;;;;15.15;12.10;;;;;;;;;;10270406;28;20499;-73
2023/08/19 09:18:21;;;;;;;13.68;12.25;;;;;;;;;;10273376;28;20072;-73
2023/08/19 09:34:15;;;;;;;12.23;11.02;;;;;;;;;;5495667;22;20044;-73
2023/08/19 09:45:14;;;;;;;13.65;12.38;;;;;;;;;;10456674;22;20138;-73
2023/08/19 09:51:13;;;;;;;;;;;;;;;;;;;;;
2023/08/19 09:56:18;;;;;;;13.13;11.93;;;;;;;;;;10377423;27;20131;-73
2023/08/19 10:01:58;;;;;;;;;;;;;;;;;;;;;
2023/08/19 10:08:12;;;;;;;;;;;;;;;;;;;;;
2023/08/19 10:13:15;;;;;;;12.90;11.45;;;;;;;;;;10314844;22;20049;-73
2023/08/19 10:18:17;;;;;;;12.13;11.10;;;;;;;;;;10312806;28;20044;-73
2023/08/19 10:23:35;;;;;;;12.90;11.70;;;;;;;;;;10365138;22;20052;-74
2023/08/19 10:34:28;;;;;;;14.18;12.88;;;;;;;;;;10607245;22;20056;-73
2023/08/19 10:39:28;;;;;;;13.07;12.00;;;;;;;;;;10313901;28;20125;-73
2023/08/19 10:44:31;;;;;;;;;;;;;;;;;;10314942;28;20041;-73
2023/08/19 10:49:33;;;;;;;13.27;12.07;;;;;;;;;;10333581;22;19957;-73
2023/08/19 10:54:31;;;;;;;13.85;12.65;;;;;;;;;;10376622;28;20055;-73
2023/08/19 10:59:29;;;;;;;13.68;11.95;;;;;;;;;;10380534;28;20047;-73
2023/08/19 11:04:25;;;;;;;12.88;11.77;;;;;;;;;;10381536;28;20051;-73
2023/08/19 11:09:26;;;;;;;13.90;12.55;;;;;;;;;;10396289;22;20127;-73
2023/08/19 11:14:23;;;;;;;14.90;13.00;;;;;;;;;;10334012;28;20068;-73
2023/08/19 11:19:20;;;;;;;16.60;13.35;;;;;;;;;;10339371;28;20040;-73
2023/08/19 11:24:16;;;;;;;14.27;12.95;;;;;;;;;;10317210;28;20557;-73
2023/08/19 11:29:13;;;;;;;13.48;12.27;;;;;;;;;;10306154;28;20044;-73
2023/08/19 11:34:10;;;;;;;13.65;12.45;;;;;;;;;;10296126;28;20114;-73
2023/08/19 11:39:30;;;;;;;15.32;13.02;;;;;;;;;;10300319;23;20049;-73
2023/08/19 11:45:09;;;;;;;13.27;12.07;;;;;;;;;;10324393;28;20040;-73
2023/08/19 11:50:14;;;;;;;12.32;11.23;;;;;;;;;;10444082;22;20052;-73
2023/08/19 11:55:13;;;;;;;14.70;12.48;;;;;;;;;;10381881;28;20043;-73
2023/08/19 12:00:15;;;;;;;14.85;13.43;;;;;;;;;;10391505;28;20096;-73
2023/08/19 12:05:20;;;;;;;14.07;12.68;;;;;;;;;;10387477;28;20636;-73
2023/08/19 12:10:17;;;;;;;13.80;12.52;;;;;;;;;;10470230;22;20080;-73
2023/08/19 12:15:13;;;;;;;14.70;13.30;;;;;;;;;;10377148;27;20082;-73
2023/08/19 12:26:37;;;;;;;12.95;11.73;;;;;;;;;;10251730;28;20110;-73
2023/08/19 12:31:57;;;;;;;17.30;13.40;;;;;;;;;;10292596;28;20052;-72
2023/08/19 12:37:09;;;;;;;;;;;;;;;;;;10342347;28;20061;-73
2023/08/19 12:42:05;;;;;;;14.20;12.90;;;;;;;;;;10314394;22;19964;-72
2023/08/19 12:47:02;;;;;;;14.60;13.10;;;;;;;;;;10275289;28;20537;-73
2023/08/19 12:51:58;;;;;;;15.32;13.85;;;;;;;;;;10268724;28;20071;-72
2023/08/19 12:56:54;;;;;;;14.20;12.50;;;;;;;;;;10264838;28;20099;-73
2023/08/19 13:01:51;;;;;;;13.32;12.13;;;;;;;;;;10271815;28;20052;-72
2023/08/19 13:06:47;;;;;;;12.35;11.25;;;;;;;;;;10266613;28;20076;-72
2023/08/19 13:11:43;;;;;;;13.93;12.52;;;;;;;;;;10269371;28;20179;-72
2023/08/19 13:16:40;;;;;;;13.70;12.48;;;;;;;;;;10268104;28;20049;-72
2023/08/19 13:21:48;;;;;;;14.32;12.93;;;;;;;;;;10344571;22;20139;-72
2023/08/19 13:26:53;;;;;;;17.98;14.25;;;;;;;;;;10351924;27;20466;-72
2023/08/19 13:31:51;;;;;;;14.38;12.85;;;;;;;;;;10340366;22;20406;-72
2023/08/19 13:36:48;;;;;;;18.95;13.77;;;;;;;;;;10305924;28;20095;-72
2023/08/19 13:41:44;;;;;;;13.73;12.48;;;;;;;;;;10313586;28;20079;-73
2023/08/19 13:46:40;;;;;;;14.27;12.75;;;;;;;;;;10289010;28;20079;-72
2023/08/19 13:51:37;;;;;;;16.85;13.57;;;;;;;;;;10301178;28;20124;-73
2023/08/19 13:56:33;;;;;;;12.50;11.40;;;;;;;;;;10303452;28;20498;-72
2023/08/19 14:01:29;;;;;;;13.88;12.68;;;;;;;;;;10296632;28;20137;-73
2023/08/19 14:06:26;;;;;;;12.23;11.20;;;;;;;;;;10297384;28;20103;-73
2023/08/19 14:11:23;;;;;;;12.90;11.70;;;;;;;;;;10286221;28;20080;-72
2023/08/19 14:16:19;;;;;;;15.13;13.27;;;;;;;;;;10289763;28;20095;-73
2023/08/19 14:21:15;;;;;;;13.57;12.30;;;;;;;;;;10298309;28;20090;-72
2023/08/19 14:26:12;;;;;;;12.85;11.65;;;;;;;;;;10305533;28;20102;-72
2023/08/19 14:31:08;;;;;;;15.10;13.60;;;;;;;;;;10296294;28;20053;-72
2023/08/19 14:36:04;;;;;;;14.27;12.95;;;;;;;;;;10278213;28;20461;-73
2023/08/19 14:41:00;;;;;;;15.80;14.20;;;;;;;;;;10305846;28;20686;-73
2023/08/19 14:45:57;;;;;;;14.43;12.95;;;;;;;;;;10302484;28;20049;-73
2023/08/19 14:50:53;;;;;;;13.68;12.43;;;;;;;;;;10307283;28;20537;-73
2023/08/19 14:55:49;;;;;;;16.90;15.13;;;;;;;;;;10304384;28;20103;-73
2023/08/19 15:00:46;;;;;;;16.00;14.40;;;;;;;;;;10386221;22;20059;-73
2023/08/19 15:05:42;;;;;;;19.05;15.60;;;;;;;;;;10388918;28;20088;-72
2023/08/19 15:10:39;;;;;;;15.43;13.98;;;;;;;;;;10364237;28;20464;-73
2023/08/19 15:15:37;;;;;;;15.02;13.45;;;;;;;;;;10338948;28;20413;-73
2023/08/19 15:25:38;;;;;;;15.70;14.20;;;;;;;;;;10645548;22;20643;-73
2023/08/19 15:52:52;;;;;;;17.08;15.43;;;;;;;;;;10278195;28;20059;-73
2023/08/19 15:58:23;;;;;;;17.40;15.67;;;;;;;;;;10280170;28;20502;-73
2023/08/19 16:03:53;;;;;;;15.45;13.93;;;;;;;;;;10306797;22;20049;-72
2023/08/19 16:08:50;;;;;;;14.68;13.27;;;;;;;;;;10288794;28;20117;-72
2023/08/19 16:13:47;;;;;;;15.63;13.38;;;;;;;;;;10257539;28;20045;-73
2023/08/19 16:18:43;;;;;;;15.30;13.80;;;;;;;;;;10259839;28;20049;-73
2023/08/19 16:23:40;;;;;;;14.95;13.55;;;;;;;;;;10268098;28;20514;-73
2023/08/19 16:28:36;;;;;;;17.27;15.48;;;;;;;;;;10267321;28;20545;-73
2023/08/19 16:33:35;;;;;;;14.55;13.15;;;;;;;;;;10261194;28;20042;-73
2023/08/19 16:38:32;;;;;;;14.13;12.68;;;;;;;;;;10267281;28;20077;-73
2023/08/19 16:43:28;;;;;;;14.90;13.25;;;;;;;;;;10266625;28;20396;-73
2023/08/19 16:48:25;;;;;;;14.43;12.77;;;;;;;;;;10265262;28;20400;-73
2023/08/19 16:53:21;;;;;;;13.57;12.05;;;;;;;;;;10251219;28;20126;-73
2023/08/19 16:58:18;;;;;;;14.07;12.68;;;;;;;;;;10254612;28;20087;-73
2023/08/19 17:03:14;;;;;;;13.57;12.27;;;;;;;;;;10231946;28;20049;-73
2023/08/19 17:08:10;;;;;;;14.95;11.63;;;;;;;;;;10235451;28;20099;-73
2023/08/19 17:13:07;;;;;;;13.18;11.57;;;;;;;;;;10234335;28;20425;-73
2023/08/19 17:18:03;;;;;;;13.93;12.43;;;;;;;;;;10228730;28;20049;-73
2023/08/19 17:23:00;;;;;;;12.77;11.43;;;;;;;;;;10239300;28;20055;-73
2023/08/19 17:27:56;;;;;;;13.05;11.55;;;;;;;;;;10235099;28;20111;-73
2023/08/19 17:32:52;;;;;;;16.98;12.48;;;;;;;;;;10230616;28;20061;-73
2023/08/19 17:37:49;;;;;;;14.27;12.88;;;;;;;;;;10228060;28;20093;-72
2023/08/19 17:42:45;;;;;;;14.27;12.95;;;;;;;;;;10229385;28;20126;-72
2023/08/19 17:47:41;;;;;;;13.40;12.20;;;;;;;;;;10240339;28;20048;-72
2023/08/19 17:52:37;;;;;;;12.95;11.77;;;;;;;;;;10230046;28;20041;-73
2023/08/19 17:57:34;;;;;;;13.02;11.70;;;;;;;;;;10222726;28;20117;-73
2023/08/19 18:02:31;;;;;;;12.75;11.52;;;;;;;;;;10228970;28;20412;-73
2023/08/19 18:07:28;;;;;;;11.95;10.88;;;;;;;;;;10224762;28;20041;-73
2023/08/19 18:12:24;;;;;;;14.05;12.77;;;;;;;;;;10451848;22;20039;-73
2023/08/19 18:17:21;;;;;;;14.15;12.73;;;;;;;;;;10386752;28;20461;-73
2023/08/19 18:22:17;;;;;;;16.27;13.98;;;;;;;;;;10381514;28;20412;-73
2023/08/19 18:27:13;;;;;;;14.52;13.23;;;;;;;;;;10385783;28;20051;-73
2023/08/19 18:38:51;;;;;;;;;;;;;;;;;;;;;
2023/08/19 18:44:19;;;;;;;15.25;13.98;;;;;;;;;;10131982;28;20062;-73
2023/08/19 18:49:47;;;;;;;16.05;14.60;;;;;;;;;;10352337;22;20057;-73
2023/08/19 18:54:48;;;;;;;16.77;15.23;;;;;;;;;;10362650;28;20055;-72
2023/08/19 18:59:45;;;;;;;15.98;14.55;;;;;;;;;;10374828;28;20071;-73
2023/08/19 19:04:41;;;;;;;16.50;15.00;;;;;;;;;;10377351;28;20406;-73
2023/08/19 19:14:42;;;;;;;17.48;14.90;;;;;;;;;;10203139;25;20198;-73
2023/08/19 19:19:40;;;;;;;17.00;15.48;;;;;;;;;;10382288;28;20048;-73
2023/08/19 19:24:36;;;;;;;17.50;15.90;;;;;;;;;;10370519;28;20540;-73
2023/08/19 19:29:33;;;;;;;20.55;18.45;;;;;;;;;;10388506;28;20063;-72
2023/08/19 19:34:29;;;;;;;20.70;18.13;;;;;;;;;;10380423;28;20048;-73
2023/08/19 19:39:26;;;;;;;18.88;17.02;;;;;;;;;;10478258;22;20040;-72
2023/08/19 19:44:22;;;;;;;20.88;18.85;;;;;;;;;;10383640;28;20505;-73
2023/08/19 19:49:18;;;;;;;21.08;19.05;;;;;;;;;;10354413;28;20626;-73
2023/08/19 19:54:15;;;;;;;18.80;16.90;;;;;;;;;;10377562;28;20051;-72
2023/08/19 19:59:11;;;;;;;18.17;16.33;;;;;;;;;;10379986;28;20143;-73
2023/08/19 20:04:07;;;;;;;19.20;17.38;;;;;;;;;;10392599;28;20188;-73
2023/08/19 20:09:04;;;;;;;19.02;17.02;;;;;;;;;;10379891;28;20044;-73
2023/08/19 20:14:00;;;;;;;16.33;14.73;;;;;;;;;;10378969;28;20513;-72
2023/08/19 20:18:56;;;;;;;18.67;12.90;;;;;;;;;;10368045;28;20575;-72
2023/08/19 20:23:53;;;;;;;13.52;12.00;;;;;;;;;;10383834;28;20464;-72
2023/08/19 20:28:52;;;;;;;13.23;11.00;;;;;;;;;;10383273;28;20096;-72
2023/08/19 20:33:48;;;;;;;12.07;10.85;;;;;;;;;;10378672;28;20558;-73
2023/08/19 20:44:22;;;;;;;;;;;;;;;;;;;;;
2023/08/19 20:55:45;;;;;;;10.30;8.75;;;;;;;;;;10231494;28;20053;-72
2023/08/19 21:00:43;;;;;;;10.63;9.48;;;;;;;;;;10316158;28;20061;-73
2023/08/19 21:05:40;;;;;;;13.07;9.98;;;;;;;;;;10351329;28;20126;-72
2023/08/19 21:10:36;;;;;;;12.15;9.82;;;;;;;;;;10329725;28;20056;-72
2023/08/19 21:15:32;;;;;;;12.85;10.02;;;;;;;;;;10343316;28;20048;-73
2023/08/19 21:20:29;;;;;;;12.75;9.55;;;;;;;;;;10337902;28;20113;-73
2023/08/19 21:25:25;;;;;;;11.30;9.07;;;;;;;;;;10350639;28;20052;-73
2023/08/19 21:30:21;;;;;;;11.55;9.00;;;;;;;;;;10345558;28;23024;-72
2023/08/19 21:35:17;;;;;;;10.00;8.88;;;;;;;;;;10350541;28;20465;-73
2023/08/19 21:46:34;;;;;;;11.82;8.93;;;;;;;;;;10297345;28;20076;-72
2023/08/19 21:51:55;;;;;;;9.68;7.72;;;;;;;;;;10285290;28;20076;-72
2023/08/19 21:56:52;;;;;;;10.80;8.88;;;;;;;;;;10293302;28;20137;-72
2023/08/19 22:01:48;;;;;;;12.98;8.00;;;;;;;;;;10361703;22;20071;-73
2023/08/19 22:06:44;;;;;;;11.93;8.07;;;;;;;;;;10385903;28;20463;-72
2023/08/19 22:11:42;;;;;;;11.80;8.77;;;;;;;;;;10396487;22;20060;-73
2023/08/19 22:16:38;;;;;;;9.27;7.72;;;;;;;;;;10383649;27;20070;-72
2023/08/19 22:21:34;;;;;;;9.05;7.90;;;;;;;;;;10390899;28;20054;-72
2023/08/19 22:26:31;;;;;;;9.27;8.38;;;;;;;;;;10383575;27;20052;-72
2023/08/19 22:31:27;;;;;;;13.52;9.45;;;;;;;;;;10394729;22;20124;-72
2023/08/19 22:36:23;;;;;;;15.23;9.05;;;;;;;;;;10305637;28;20048;-72
2023/08/19 22:41:19;;;;;;;9.35;7.97;;;;;;;;;;10309694;28;20098;-72
2023/08/19 22:46:16;;;;;;;13.63;8.77;;;;;;;;;;10300757;28;20095;-71
2023/08/19 22:51:12;;;;;;;16.33;9.13;;;;;;;;;;10348736;22;20686;-72
2023/08/19 22:56:08;;;;;;;12.57;8.57;;;;;;;;;;10374099;28;20048;-72
2023/08/19 23:01:05;;;;;;;15.68;8.43;;;;;;;;;;10380631;28;20577;-71
2023/08/19 23:06:01;;;;;;;10.77;9.57;;;;;;;;;;10372677;28;20056;-72
2023/08/19 23:10:57;;;;;;;10.75;9.65;;;;;;;;;;10372400;28;20078;-72
2023/08/19 23:15:54;;;;;;;13.13;9.90;;;;;;;;;;10370429;28;20067;-72
2023/08/19 23:20:50;;;;;;;15.20;9.95;;;;;;;;;;10391572;22;20124;-72
2023/08/19 23:25:46;;;;;;;11.80;10.70;;;;;;;;;;10383712;28;20531;-72
2023/08/19 23:30:43;;;;;;;16.10;11.63;;;;;;;;;;10380364;28;20101;-72
2023/08/19 23:35:39;;;;;;;13.70;11.30;;;;;;;;;;10374437;28;20113;-72
2023/08/19 23:40:43;;;;;;;16.25;13.23;;;;;;;;;;10411195;22;20056;-72
2023/08/19 23:46:45;;;;;;;12.80;11.77;;;;;;;;;;10373556;28;20043;-72
2023/08/19 23:51:56;;;;;;;15.15;10.95;;;;;;;;;;10375722;28;20047;-72
2023/08/19 23:56:53;;;;;;;13.75;11.85;;;;;;;;;;10378248;28;20519;-71
